Georgitsi — V7VY5 — position and weather

sailwx.info

Track history (hours):
 
Tides and Currents Weather Stations Pressure Air Temp Water Temp Dewpoint Dewpoint Depression Visibility Wind Speed Wind Dir Waves Ship Positions

Georgitsi

Last reported at 2017-Dec-17 00:11 UTC. Time now 2018-Jan-24 01:55 UTC.
Position N 39°40' W 032°12'.
Warning: this ship's position is 38 days out of date.

Length 229 m; draft 7.5 m.

Type: Cargo ship. MMSI: 538004242.

Date/timePositionNaut miles runAvg speedWind from/ knotsBaromVisibWave heightAir tempDewpointWater temp
2017-Dec-17 00:11N 39°40' W 032°12'313.7
2017-Dec-17 00:00N 39°42' W 032°11'713.3
2017-Dec-16 23:30N 39°48' W 032°06'713.4
2017-Dec-16 23:00N 39°54' W 032°02'713.2
2017-Dec-16 22:30N 39°59' W 031°57'4413.1
2017-Dec-16 19:09N 40°33' W 031°20'213.1
2017-Dec-16 18:57N 40°35' W 031°18'613.0
2017-Dec-16 18:28N 40°40' W 031°12'1113.0
2017-Dec-16 17:38N 40°48' W 031°03'213.1
2017-Dec-16 17:30N 40°49' W 031°01'712.7
2017-Dec-16 17:00N 40°54' W 030°56'1412.6
2017-Dec-16 15:51N 41°05' W 030°43'  
2017-Dec-11 09:06N 49°47' W 003°49'111.0
2017-Dec-11 09:00N 49°48' W 003°47'611.2
2017-Dec-11 08:26N 49°50' W 003°38'511.6
2017-Dec-11 08:01N 49°51' W 003°31'611.7
2017-Dec-11 07:30N 49°53' W 003°22'611.9
2017-Dec-11 07:00N 49°55' W 003°14'611.9
2017-Dec-11 06:28N 49°57' W 003°04'612.1
2017-Dec-11 06:00N 49°59' W 002°56'711.9
2017-Dec-11 05:25N 50°02' W 002°46'511.5
2017-Dec-11 04:58N 50°03' W 002°38'611.0
2017-Dec-11 04:26N 50°05' W 002°29'61 9.3
2017-Dec-10 21:56N 50°22' W 000°58'512.3
2017-Dec-10 21:30N 50°23' W 000°50'1612.8
2017-Dec-10 20:16N 50°28' W 000°26'312.6
2017-Dec-10 20:00N 50°29' W 000°21'612.5
2017-Dec-10 19:30N 50°30' W 000°12'611.8
2017-Dec-10 19:00N 50°32' W 000°03'611.3
2017-Dec-10 18:30N 50°34' E 000°06'510.7
2017-Dec-10 18:01N 50°35' E 000°14'5 9.7
2017-Dec-10 17:30N 50°36' E 000°21'4 9.0
2017-Dec-10 17:00N 50°37' E 000°28'4 8.0
2017-Dec-10 16:30N 50°38' E 000°34'4 7.4
2017-Dec-10 16:00N 50°40' E 000°39'3 6.4
2017-Dec-10 15:30N 50°42' E 000°44'3 5.9
2017-Dec-10 15:00N 50°44' E 000°47'3 5.4
2017-Dec-10 14:30N 50°45' E 000°51'2 4.5
2017-Dec-10 14:00N 50°46' E 000°54'2 4.0
2017-Dec-10 13:30N 50°47' E 000°57'2 3.4
2017-Dec-10 13:00N 50°48' E 000°59'2 3.9
2017-Dec-10 12:30N 50°49' E 001°01'2 4.9
2017-Dec-10 12:00N 50°51' E 001°04'3 6.6
2017-Dec-10 11:30N 50°53' E 001°08'4 7.3
2017-Dec-10 11:00N 50°56' E 001°12'4 8.2
2017-Dec-10 10:30N 50°59' E 001°17'4 8.7
2017-Dec-10 10:00N 51°02' E 001°22'4 8.7
2017-Dec-10 09:30N 51°05' E 001°27'5 9.0
2017-Dec-10 09:00N 51°07' E 001°33'5 9.9
2017-Dec-10 08:30N 51°10' E 001°39'510.1
2017-Dec-10 08:00N 51°13' E 001°45'5 9.1
2017-Dec-10 07:31N 51°17' E 001°49'4 8.8
2017-Dec-10 07:00N 51°21' E 001°52'4 8.6
2017-Dec-10 06:30N 51°25' E 001°55'5 9.1
2017-Dec-10 06:00N 51°29' E 001°59'5 9.6
2017-Dec-10 05:30N 51°32' E 002°04'510.0
2017-Dec-10 05:00N 51°36' E 002°10'510.5
2017-Dec-10 04:30N 51°40' E 002°16'610.9
2017-Dec-10 03:59N 51°44' E 002°22'5811.6
2017-Dec-09 22:58N 52°26' E 003°27'4 8.5
2017-Dec-09 22:30N 52°27' E 003°34'4 8.5
2017-Dec-09 22:00N 52°28' E 003°40'4 8.1
2017-Dec-09 21:30N 52°30' E 003°46'4 7.8
2017-Dec-09 21:00N 52°31' E 003°53'4 7.7
2017-Dec-09 20:30N 52°31' E 003°59'4 7.7
2017-Dec-09 20:00N 52°31' E 004°05'4 7.8
2017-Dec-09 19:30N 52°31' E 004°12'4 7.8
2017-Dec-09 19:00N 52°31' E 004°18'2 4.7
2017-Dec-09 18:30N 52°30' E 004°21'5 9.9
2017-Dec-09 18:01N 52°29' E 004°29'4 7.3
2017-Dec-09 17:30N 52°28' E 004°35'0 0.1
2017-Dec-09 16:59N 52°28' E 004°35'0 0.0
2017-Dec-09 16:29N 52°28' E 004°35'0 0.0
2017-Dec-09 15:59N 52°28' E 004°35'0 0.0
2017-Dec-09 15:29N 52°28' E 004°35'0 0.0
2017-Dec-09 14:59N 52°28' E 004°35'0 0.0
2017-Dec-09 14:29N 52°28' E 004°35'0 0.0
2017-Dec-09 13:59N 52°28' E 004°35'0 0.0
2017-Dec-09 13:29N 52°28' E 004°35'0 0.0
2017-Dec-09 12:59N 52°28' E 004°35'0 0.0
2017-Dec-09 12:29N 52°28' E 004°35'0 0.0
2017-Dec-09 11:59N 52°28' E 004°35'0 0.0
2017-Dec-09 11:29N 52°28' E 004°35'0 0.0
2017-Dec-09 10:59N 52°28' E 004°35'0 0.0
2017-Dec-09 10:29N 52°28' E 004°35'0 0.0
2017-Dec-09 09:59N 52°28' E 004°35'0 0.0
2017-Dec-09 09:29N 52°28' E 004°35'0 0.0
2017-Dec-09 08:59N 52°28' E 004°35'0 0.0
2017-Dec-09 08:29N 52°28' E 004°35'0 0.0
2017-Dec-09 07:59N 52°28' E 004°35'0 0.0
2017-Dec-09 07:29N 52°28' E 004°35'0 0.0
2017-Dec-09 06:59N 52°28' E 004°35'0 0.0
2017-Dec-09 06:29N 52°28' E 004°35'0 0.0
2017-Dec-09 05:59N 52°28' E 004°35'0 0.0
2017-Dec-09 05:29N 52°28' E 004°35'0 0.0
2017-Dec-09 04:59N 52°28' E 004°35'0 0.0
2017-Dec-09 04:29N 52°28' E 004°35'0 0.0
2017-Dec-09 03:59N 52°28' E 004°35'0 0.0
2017-Dec-09 03:29N 52°28' E 004°35'0 0.0
2017-Dec-09 02:59N 52°28' E 004°35'0 0.0
2017-Dec-09 02:29N 52°28' E 004°35'0 0.0
2017-Dec-09 01:59N 52°28' E 004°35'0 0.0
2017-Dec-09 01:29N 52°28' E 004°35'0 0.0
2017-Dec-09 00:59N 52°28' E 004°35'0 0.0
2017-Dec-09 00:29N 52°28' E 004°35'0 0.0
2017-Dec-08 23:59N 52°28' E 004°35'0 0.0
2017-Dec-08 23:29N 52°28' E 004°35'0 0.0
2017-Dec-08 22:59N 52°28' E 004°35'0 0.0
2017-Dec-08 22:29N 52°28' E 004°35'0 0.0
2017-Dec-08 21:59N 52°28' E 004°35'0 0.0
2017-Dec-08 21:29N 52°28' E 004°35'0 0.0
2017-Dec-08 20:59N 52°28' E 004°35'0 0.0
2017-Dec-08 20:29N 52°28' E 004°35'0 0.0
2017-Dec-08 19:59N 52°28' E 004°35'0 0.0
2017-Dec-08 19:29N 52°28' E 004°35'0 0.0
2017-Dec-08 18:59N 52°28' E 004°35'0 0.0
2017-Dec-08 18:29N 52°28' E 004°35'0 0.0
2017-Dec-08 17:59N 52°28' E 004°35'0 0.0
2017-Dec-08 17:29N 52°28' E 004°35'0 0.0
2017-Dec-08 16:59N 52°28' E 004°35'0 0.0
2017-Dec-08 16:29N 52°28' E 004°35'0 0.0
2017-Dec-08 15:59N 52°28' E 004°35'0 0.0
2017-Dec-08 15:29N 52°28' E 004°35'0 0.0
2017-Dec-08 14:59N 52°28' E 004°35'0 0.0
2017-Dec-08 14:29N 52°28' E 004°35'0 0.1
2017-Dec-08 13:59N 52°28' E 004°35'0 0.0
2017-Dec-08 13:29N 52°28' E 004°35'0 0.0
2017-Dec-08 12:56N 52°28' E 004°35'0 0.0
2017-Dec-08 12:29N 52°28' E 004°35'0 0.0
2017-Dec-08 11:59N 52°28' E 004°35'0 0.0
2017-Dec-08 11:29N 52°28' E 004°35'0 0.0
2017-Dec-08 10:56N 52°28' E 004°35'0 0.0
2017-Dec-08 10:29N 52°28' E 004°35'0 0.0
2017-Dec-08 09:59N 52°28' E 004°35'0 0.0
2017-Dec-08 09:29N 52°28' E 004°35'0 0.0
2017-Dec-08 08:59N 52°28' E 004°35'0 0.0
2017-Dec-08 08:29N 52°28' E 004°35'0 0.0
2017-Dec-08 08:00N 52°28' E 004°35'1 2.3
2017-Dec-08 07:31N 52°28' E 004°33'4 8.3
2017-Dec-08 07:00N 52°29' E 004°27'5 9.8
2017-Dec-08 06:30N 52°29' E 004°19'5 9.6
2017-Dec-08 06:00N 52°30' E 004°11'5 9.3
2017-Dec-08 05:30N 52°30' E 004°03'510.3
2017-Dec-08 05:00N 52°30' E 003°55'510.5
2017-Dec-08 04:30N 52°29' E 003°46'1 2.5
2017-Dec-08 03:59N 52°28' E 003°46'0 0.5
2017-Dec-08 03:20N 52°27' E 003°46'0 0.1
2017-Dec-08 02:47N 52°27' E 003°46'0 0.1
2017-Dec-08 02:02N 52°27' E 003°46'0 0.1
2017-Dec-08 01:59N 52°27' E 003°46'0 0.1
2017-Dec-08 01:06N 52°27' E 003°46'0 0.1
2017-Dec-08 00:58N 52°27' E 003°46'0 0.0
2017-Dec-08 00:22N 52°27' E 003°46'0 0.1
2017-Dec-07 23:58N 52°27' E 003°46'0 0.0
2017-Dec-07 22:52N 52°27' E 003°46'0 0.1
2017-Dec-07 22:01N 52°27' E 003°46'0 0.1
2017-Dec-07 21:54N 52°27' E 003°46'0 0.2
2017-Dec-07 21:28N 52°27' E 003°46'0 0.1
2017-Dec-07 20:43N 52°28' E 003°47'0 0.1
2017-Dec-07 20:19N 52°28' E 003°47'0 0.1
2017-Dec-07 19:58N 52°28' E 003°46'0 0.1
2017-Dec-07 19:28N 52°28' E 003°46'0 0.1
2017-Dec-07 18:58N 52°28' E 003°46'0 0.1
2017-Dec-07 18:25N 52°28' E 003°46'0 0.0
2017-Dec-07 17:34N 52°28' E 003°46'0 0.1
2017-Dec-07 17:28N 52°28' E 003°46'0 0.3
2017-Dec-07 16:59N 52°28' E 003°46'2 3.2
2017-Dec-07 16:31N 52°29' E 003°47'0 0.2
2017-Dec-07 16:00N 52°29' E 003°47'2 3.5
2017-Dec-07 15:30N 52°27' E 003°47'0 0.3
2017-Dec-07 14:57N 52°27' E 003°47'0 0.1
2017-Dec-07 14:30N 52°27' E 003°47'0 0.0
2017-Dec-07 13:51N 52°27' E 003°47'0 0.1
2017-Dec-07 13:30N 52°27' E 003°47'0 0.0
2017-Dec-07 13:00N 52°27' E 003°47'0 0.0
2017-Dec-07 12:30N 52°27' E 003°47'0 0.1
2017-Dec-07 12:00N 52°28' E 003°47'0 0.1
2017-Dec-07 11:15N 52°27' E 003°47'0 0.1
2017-Dec-07 11:00N 52°27' E 003°47'0 0.0
2017-Dec-07 10:28N 52°27' E 003°47'0 0.1
2017-Dec-07 09:52N 52°27' E 003°47'0 0.0
2017-Dec-07 09:28N 52°27' E 003°47'0 0.0
2017-Dec-07 08:55N 52°27' E 003°47'0 0.0
2017-Dec-07 08:28N 52°28' E 003°47'0 0.0
2017-Dec-07 07:55N 52°28' E 003°47'0 0.1
2017-Dec-07 07:28N 52°28' E 003°47'0 0.0
2017-Dec-07 06:58N 52°28' E 003°47'0 0.0
2017-Dec-07 06:28N 52°28' E 003°47'0 0.0
2017-Dec-07 05:58N 52°28' E 003°47'0 0.1
2017-Dec-07 05:28N 52°28' E 003°47'0 0.0
2017-Dec-07 04:58N 52°28' E 003°47'0 0.1
2017-Dec-07 04:28N 52°28' E 003°47'0 0.1
2017-Dec-07 03:58N 52°28' E 003°47'0 0.0
2017-Dec-07 03:28N 52°28' E 003°47'0 0.0
2017-Dec-07 02:58N 52°28' E 003°47'0 0.1
2017-Dec-07 02:28N 52°27' E 003°47'0 0.0
2017-Dec-07 01:58N 52°27' E 003°47'0 0.0
2017-Dec-07 01:28N 52°27' E 003°47'0 0.0
2017-Dec-07 00:58N 52°27' E 003°47'0 0.1
2017-Dec-07 00:25N 52°27' E 003°47'  
Track history (hours):
 
Tides and Currents Weather Stations Pressure Air Temp Water Temp Dewpoint Dewpoint Depression Visibility Wind Speed Wind Dir Waves Ship Positions

Georgitsi

Last reported at 2017-Dec-17 00:11 UTC. Time now 2018-Jan-24 01:55 UTC.
Position N 39°40' W 032°12'.
Warning: this ship's position is 38 days out of date.

Length 229 m; draft 7.5 m.

Type: Cargo ship. MMSI: 538004242.

Date/timePositionNaut miles runAvg speedWind from/ knotsBaromVisibWave heightAir tempDewpointWater temp
2017-Dec-17 00:11N 39°40' W 032°12'313.7
2017-Dec-17 00:00N 39°42' W 032°11'713.3
2017-Dec-16 23:30N 39°48' W 032°06'713.4
2017-Dec-16 23:00N 39°54' W 032°02'713.2
2017-Dec-16 22:30N 39°59' W 031°57'4413.1
2017-Dec-16 19:09N 40°33' W 031°20'213.1
2017-Dec-16 18:57N 40°35' W 031°18'613.0
2017-Dec-16 18:28N 40°40' W 031°12'1113.0
2017-Dec-16 17:38N 40°48' W 031°03'213.1
2017-Dec-16 17:30N 40°49' W 031°01'712.7
2017-Dec-16 17:00N 40°54' W 030°56'1412.6
2017-Dec-16 15:51N 41°05' W 030°43'  
2017-Dec-11 09:06N 49°47' W 003°49'111.0
2017-Dec-11 09:00N 49°48' W 003°47'611.2
2017-Dec-11 08:26N 49°50' W 003°38'511.6
2017-Dec-11 08:01N 49°51' W 003°31'611.7
2017-Dec-11 07:30N 49°53' W 003°22'611.9
2017-Dec-11 07:00N 49°55' W 003°14'611.9
2017-Dec-11 06:28N 49°57' W 003°04'612.1
2017-Dec-11 06:00N 49°59' W 002°56'711.9
2017-Dec-11 05:25N 50°02' W 002°46'511.5
2017-Dec-11 04:58N 50°03' W 002°38'611.0
2017-Dec-11 04:26N 50°05' W 002°29'61 9.3
2017-Dec-10 21:56N 50°22' W 000°58'512.3
2017-Dec-10 21:30N 50°23' W 000°50'1612.8
2017-Dec-10 20:16N 50°28' W 000°26'312.6
2017-Dec-10 20:00N 50°29' W 000°21'612.5
2017-Dec-10 19:30N 50°30' W 000°12'611.8
2017-Dec-10 19:00N 50°32' W 000°03'611.3
2017-Dec-10 18:30N 50°34' E 000°06'510.7
2017-Dec-10 18:01N 50°35' E 000°14'5 9.7
2017-Dec-10 17:30N 50°36' E 000°21'4 9.0
2017-Dec-10 17:00N 50°37' E 000°28'4 8.0
2017-Dec-10 16:30N 50°38' E 000°34'4 7.4
2017-Dec-10 16:00N 50°40' E 000°39'3 6.4
2017-Dec-10 15:30N 50°42' E 000°44'3 5.9
2017-Dec-10 15:00N 50°44' E 000°47'3 5.4
2017-Dec-10 14:30N 50°45' E 000°51'2 4.5
2017-Dec-10 14:00N 50°46' E 000°54'2 4.0
2017-Dec-10 13:30N 50°47' E 000°57'2 3.4
2017-Dec-10 13:00N 50°48' E 000°59'2 3.9
2017-Dec-10 12:30N 50°49' E 001°01'2 4.9
2017-Dec-10 12:00N 50°51' E 001°04'3 6.6
2017-Dec-10 11:30N 50°53' E 001°08'4 7.3
2017-Dec-10 11:00N 50°56' E 001°12'4 8.2
2017-Dec-10 10:30N 50°59' E 001°17'4 8.7
2017-Dec-10 10:00N 51°02' E 001°22'4 8.7
2017-Dec-10 09:30N 51°05' E 001°27'5 9.0
2017-Dec-10 09:00N 51°07' E 001°33'5 9.9
2017-Dec-10 08:30N 51°10' E 001°39'510.1
2017-Dec-10 08:00N 51°13' E 001°45'5 9.1
2017-Dec-10 07:31N 51°17' E 001°49'4 8.8
2017-Dec-10 07:00N 51°21' E 001°52'4 8.6
2017-Dec-10 06:30N 51°25' E 001°55'5 9.1
2017-Dec-10 06:00N 51°29' E 001°59'5 9.6
2017-Dec-10 05:30N 51°32' E 002°04'510.0
2017-Dec-10 05:00N 51°36' E 002°10'510.5
2017-Dec-10 04:30N 51°40' E 002°16'610.9
2017-Dec-10 03:59N 51°44' E 002°22'5811.6
2017-Dec-09 22:58N 52°26' E 003°27'4 8.5
2017-Dec-09 22:30N 52°27' E 003°34'4 8.5
2017-Dec-09 22:00N 52°28' E 003°40'4 8.1
2017-Dec-09 21:30N 52°30' E 003°46'4 7.8
2017-Dec-09 21:00N 52°31' E 003°53'4 7.7
2017-Dec-09 20:30N 52°31' E 003°59'4 7.7
2017-Dec-09 20:00N 52°31' E 004°05'4 7.8
2017-Dec-09 19:30N 52°31' E 004°12'4 7.8
2017-Dec-09 19:00N 52°31' E 004°18'2 4.7
2017-Dec-09 18:30N 52°30' E 004°21'5 9.9
2017-Dec-09 18:01N 52°29' E 004°29'4 7.3
2017-Dec-09 17:30N 52°28' E 004°35'0 0.1
2017-Dec-09 16:59N 52°28' E 004°35'0 0.0
2017-Dec-09 16:29N 52°28' E 004°35'0 0.0
2017-Dec-09 15:59N 52°28' E 004°35'0 0.0
2017-Dec-09 15:29N 52°28' E 004°35'0 0.0
2017-Dec-09 14:59N 52°28' E 004°35'0 0.0
2017-Dec-09 14:29N 52°28' E 004°35'0 0.0
2017-Dec-09 13:59N 52°28' E 004°35'0 0.0
2017-Dec-09 13:29N 52°28' E 004°35'0 0.0
2017-Dec-09 12:59N 52°28' E 004°35'0 0.0
2017-Dec-09 12:29N 52°28' E 004°35'0 0.0
2017-Dec-09 11:59N 52°28' E 004°35'0 0.0
2017-Dec-09 11:29N 52°28' E 004°35'0 0.0
2017-Dec-09 10:59N 52°28' E 004°35'0 0.0
2017-Dec-09 10:29N 52°28' E 004°35'0 0.0
2017-Dec-09 09:59N 52°28' E 004°35'0 0.0
2017-Dec-09 09:29N 52°28' E 004°35'0 0.0
2017-Dec-09 08:59N 52°28' E 004°35'0 0.0
2017-Dec-09 08:29N 52°28' E 004°35'0 0.0
2017-Dec-09 07:59N 52°28' E 004°35'0 0.0
2017-Dec-09 07:29N 52°28' E 004°35'0 0.0
2017-Dec-09 06:59N 52°28' E 004°35'0 0.0
2017-Dec-09 06:29N 52°28' E 004°35'0 0.0
2017-Dec-09 05:59N 52°28' E 004°35'0 0.0
2017-Dec-09 05:29N 52°28' E 004°35'0 0.0
2017-Dec-09 04:59N 52°28' E 004°35'0 0.0
2017-Dec-09 04:29N 52°28' E 004°35'0 0.0
2017-Dec-09 03:59N 52°28' E 004°35'0 0.0
2017-Dec-09 03:29N 52°28' E 004°35'0 0.0
2017-Dec-09 02:59N 52°28' E 004°35'0 0.0
2017-Dec-09 02:29N 52°28' E 004°35'0 0.0
2017-Dec-09 01:59N 52°28' E 004°35'0 0.0
2017-Dec-09 01:29N 52°28' E 004°35'0 0.0
2017-Dec-09 00:59N 52°28' E 004°35'0 0.0
2017-Dec-09 00:29N 52°28' E 004°35'0 0.0
2017-Dec-08 23:59N 52°28' E 004°35'0 0.0
2017-Dec-08 23:29N 52°28' E 004°35'0 0.0
2017-Dec-08 22:59N 52°28' E 004°35'0 0.0
2017-Dec-08 22:29N 52°28' E 004°35'0 0.0
2017-Dec-08 21:59N 52°28' E 004°35'0 0.0
2017-Dec-08 21:29N 52°28' E 004°35'0 0.0
2017-Dec-08 20:59N 52°28' E 004°35'0 0.0
2017-Dec-08 20:29N 52°28' E 004°35'0 0.0
2017-Dec-08 19:59N 52°28' E 004°35'0 0.0
2017-Dec-08 19:29N 52°28' E 004°35'0 0.0
2017-Dec-08 18:59N 52°28' E 004°35'0 0.0
2017-Dec-08 18:29N 52°28' E 004°35'0 0.0
2017-Dec-08 17:59N 52°28' E 004°35'0 0.0
2017-Dec-08 17:29N 52°28' E 004°35'0 0.0
2017-Dec-08 16:59N 52°28' E 004°35'0 0.0
2017-Dec-08 16:29N 52°28' E 004°35'0 0.0
2017-Dec-08 15:59N 52°28' E 004°35'0 0.0
2017-Dec-08 15:29N 52°28' E 004°35'0 0.0
2017-Dec-08 14:59N 52°28' E 004°35'0 0.0
2017-Dec-08 14:29N 52°28' E 004°35'0 0.1
2017-Dec-08 13:59N 52°28' E 004°35'0 0.0
2017-Dec-08 13:29N 52°28' E 004°35'0 0.0
2017-Dec-08 12:56N 52°28' E 004°35'0 0.0
2017-Dec-08 12:29N 52°28' E 004°35'0 0.0
2017-Dec-08 11:59N 52°28' E 004°35'0 0.0
2017-Dec-08 11:29N 52°28' E 004°35'0 0.0
2017-Dec-08 10:56N 52°28' E 004°35'0 0.0
2017-Dec-08 10:29N 52°28' E 004°35'0 0.0
2017-Dec-08 09:59N 52°28' E 004°35'0 0.0
2017-Dec-08 09:29N 52°28' E 004°35'0 0.0
2017-Dec-08 08:59N 52°28' E 004°35'0 0.0
2017-Dec-08 08:29N 52°28' E 004°35'0 0.0
2017-Dec-08 08:00N 52°28' E 004°35'1 2.3
2017-Dec-08 07:31N 52°28' E 004°33'4 8.3
2017-Dec-08 07:00N 52°29' E 004°27'5 9.8
2017-Dec-08 06:30N 52°29' E 004°19'5 9.6
2017-Dec-08 06:00N 52°30' E 004°11'5 9.3
2017-Dec-08 05:30N 52°30' E 004°03'510.3
2017-Dec-08 05:00N 52°30' E 003°55'510.5
2017-Dec-08 04:30N 52°29' E 003°46'1 2.5
2017-Dec-08 03:59N 52°28' E 003°46'0 0.5
2017-Dec-08 03:20N 52°27' E 003°46'0 0.1
2017-Dec-08 02:47N 52°27' E 003°46'0 0.1
2017-Dec-08 02:02N 52°27' E 003°46'0 0.1
2017-Dec-08 01:59N 52°27' E 003°46'0 0.1
2017-Dec-08 01:06N 52°27' E 003°46'0 0.1
2017-Dec-08 00:58N 52°27' E 003°46'0 0.0
2017-Dec-08 00:22N 52°27' E 003°46'0 0.1
2017-Dec-07 23:58N 52°27' E 003°46'0 0.0
2017-Dec-07 22:52N 52°27' E 003°46'0 0.1
2017-Dec-07 22:01N 52°27' E 003°46'0 0.1
2017-Dec-07 21:54N 52°27' E 003°46'0 0.2
2017-Dec-07 21:28N 52°27' E 003°46'0 0.1
2017-Dec-07 20:43N 52°28' E 003°47'0 0.1
2017-Dec-07 20:19N 52°28' E 003°47'0 0.1
2017-Dec-07 19:58N 52°28' E 003°46'0 0.1
2017-Dec-07 19:28N 52°28' E 003°46'0 0.1
2017-Dec-07 18:58N 52°28' E 003°46'0 0.1
2017-Dec-07 18:25N 52°28' E 003°46'0 0.0
2017-Dec-07 17:34N 52°28' E 003°46'0 0.1
2017-Dec-07 17:28N 52°28' E 003°46'0 0.3
2017-Dec-07 16:59N 52°28' E 003°46'2 3.2
2017-Dec-07 16:31N 52°29' E 003°47'0 0.2
2017-Dec-07 16:00N 52°29' E 003°47'2 3.5
2017-Dec-07 15:30N 52°27' E 003°47'0 0.3
2017-Dec-07 14:57N 52°27' E 003°47'0 0.1
2017-Dec-07 14:30N 52°27' E 003°47'0 0.0
2017-Dec-07 13:51N 52°27' E 003°47'0 0.1
2017-Dec-07 13:30N 52°27' E 003°47'0 0.0
2017-Dec-07 13:00N 52°27' E 003°47'0 0.0
2017-Dec-07 12:30N 52°27' E 003°47'0 0.1
2017-Dec-07 12:00N 52°28' E 003°47'0 0.1
2017-Dec-07 11:15N 52°27' E 003°47'0 0.1
2017-Dec-07 11:00N 52°27' E 003°47'0 0.0
2017-Dec-07 10:28N 52°27' E 003°47'0 0.1
2017-Dec-07 09:52N 52°27' E 003°47'0 0.0
2017-Dec-07 09:28N 52°27' E 003°47'0 0.0
2017-Dec-07 08:55N 52°27' E 003°47'0 0.0
2017-Dec-07 08:28N 52°28' E 003°47'0 0.0
2017-Dec-07 07:55N 52°28' E 003°47'0 0.1
2017-Dec-07 07:28N 52°28' E 003°47'0 0.0
2017-Dec-07 06:58N 52°28' E 003°47'0 0.0
2017-Dec-07 06:28N 52°28' E 003°47'0 0.0
2017-Dec-07 05:58N 52°28' E 003°47'0 0.1
2017-Dec-07 05:28N 52°28' E 003°47'0 0.0
2017-Dec-07 04:58N 52°28' E 003°47'0 0.1
2017-Dec-07 04:28N 52°28' E 003°47'0 0.1
2017-Dec-07 03:58N 52°28' E 003°47'0 0.0
2017-Dec-07 03:28N 52°28' E 003°47'0 0.0
2017-Dec-07 02:58N 52°28' E 003°47'0 0.1
2017-Dec-07 02:28N 52°27' E 003°47'0 0.0
2017-Dec-07 01:58N 52°27' E 003°47'0 0.0
2017-Dec-07 01:28N 52°27' E 003°47'0 0.0
2017-Dec-07 00:58N 52°27' E 003°47'0 0.1
2017-Dec-07 00:25N 52°27' E 003°47'  

Dump ship's entire track history